createdAt,value
2018-11-20T00:25:00.719Z,23.7
2018-11-20T00:25:50.134Z,23.7
2018-11-20T00:26:41.034Z,23.7
2018-11-20T00:27:31.110Z,23.7
2018-11-20T00:28:22.806Z,23.7
2018-11-20T00:29:09.978Z,23.6
2018-11-20T00:30:01.548Z,23.7
2018-11-20T00:30:51.401Z,23.7
2018-11-20T00:31:41.403Z,23.7
2018-11-20T00:32:31.053Z,23.7
2018-11-20T00:33:20.975Z,23.7
2018-11-20T00:34:11.383Z,23.7
2018-11-20T00:35:01.245Z,23.7
2018-11-20T00:35:51.726Z,23.7
2018-11-20T00:36:41.925Z,23.7
2018-11-20T00:37:31.573Z,23.7
2018-11-20T00:38:21.941Z,23.7
2018-11-20T00:39:11.953Z,23.7
2018-11-20T00:40:03.023Z,23.7
2018-11-20T00:40:52.575Z,23.8
2018-11-20T00:41:42.941Z,23.7
2018-11-20T00:42:34.870Z,23.8
2018-11-20T00:43:22.495Z,23.7
2018-11-20T00:44:12.457Z,23.8
2018-11-20T00:45:02.886Z,23.8
2018-11-20T00:45:53.113Z,23.8
2018-11-20T00:46:42.960Z,23.8
2018-11-20T00:47:32.368Z,23.8
2018-11-20T00:48:23.468Z,23.8
2018-11-20T00:49:13.415Z,23.7
2018-11-20T00:50:02.959Z,23.7
2018-11-20T00:50:54.334Z,23.7
2018-11-20T00:51:42.969Z,23.7
2018-11-20T00:52:32.732Z,23.7
2018-11-20T00:53:22.506Z,23.6
2018-11-20T00:54:13.096Z,23.6
2018-11-20T00:55:03.328Z,23.6
2018-11-20T00:55:53.681Z,23.6
2018-11-20T00:56:44.269Z,23.6
2018-11-20T00:57:33.701Z,23.6
2018-11-20T00:58:23.095Z,23.6
2018-11-20T00:59:14.354Z,23.6
2018-11-20T01:00:03.102Z,23.6
2018-11-20T01:00:53.943Z,23.6
2018-11-20T01:01:44.207Z,23.6
2018-11-20T01:02:33.931Z,23.6
2018-11-20T01:03:24.984Z,23.6
2018-11-20T01:04:14.126Z,23.6
2018-11-20T01:05:04.931Z,23.6
2018-11-20T01:05:54.288Z,23.6
2018-11-20T01:06:44.073Z,23.6
2018-11-20T01:07:34.969Z,23.6
2018-11-20T01:08:24.380Z,23.6
2018-11-20T01:09:14.981Z,23.6
2018-11-20T01:10:04.188Z,23.6
2018-11-20T01:10:54.402Z,23.6
2018-11-20T01:11:45.028Z,23.6
2018-11-20T01:12:34.965Z,23.7
2018-11-20T01:13:23.940Z,23.7
2018-11-20T01:14:14.847Z,23.7
2018-11-20T01:15:03.246Z,23.7
2018-11-20T01:15:54.755Z,23.6
2018-11-20T01:16:44.928Z,23.6
2018-11-20T01:17:35.056Z,23.6
2018-11-20T01:18:24.365Z,23.6
2018-11-20T01:19:16.013Z,23.6
2018-11-20T01:20:04.717Z,23.6
2018-11-20T01:20:55.128Z,23.6
2018-11-20T01:21:45.950Z,23.6
2018-11-20T01:22:35.999Z,23.6
2018-11-20T01:23:26.094Z,23.5
2018-11-20T01:24:15.440Z,23.5
2018-11-20T01:25:05.134Z,23.5
2018-11-20T01:25:55.965Z,23.6
2018-11-20T01:26:44.864Z,23.5
2018-11-20T01:27:35.196Z,23.6
2018-11-20T01:28:25.842Z,23.5
2018-11-20T01:29:15.408Z,23.5
2018-11-20T01:30:05.339Z,23.5
2018-11-20T01:30:56.538Z,23.5
2018-11-20T01:31:46.894Z,23.5
2018-11-20T01:32:36.705Z,23.5
2018-11-20T01:33:26.474Z,23.5
2018-11-20T01:34:15.774Z,23.5
2018-11-20T01:35:05.224Z,23.5
2018-11-20T01:35:56.506Z,23.5
2018-11-20T01:36:45.678Z,23.6
2018-11-20T01:37:36.010Z,23.5
2018-11-20T01:38:26.851Z,23.6
2018-11-20T01:39:15.931Z,23.6
2018-11-20T01:40:05.684Z,23.6
2018-11-20T01:40:56.039Z,23.6
2018-11-20T01:41:46.231Z,23.6
2018-11-20T01:42:35.611Z,23.6
2018-11-20T01:43:25.836Z,23.6
2018-11-20T01:44:17.096Z,23.6
2018-11-20T01:45:06.286Z,23.6
2018-11-20T01:45:56.849Z,23.6
2018-11-20T01:46:45.673Z,23.6
2018-11-20T01:47:36.903Z,23.6
2018-11-20T01:48:27.611Z,23.6
2018-11-20T01:49:16.048Z,23.6
2018-11-20T01:50:06.473Z,23.6
2018-11-20T01:50:56.721Z,23.6
2018-11-20T01:51:47.463Z,23.6
2018-11-20T01:52:36.775Z,23.6
2018-11-20T01:53:26.930Z,23.6
2018-11-20T01:54:17.728Z,23.6
2018-11-20T01:55:07.785Z,23.6
2018-11-20T01:55:57.483Z,23.6
2018-11-20T01:56:47.390Z,23.6
2018-11-20T01:57:36.503Z,23.6
2018-11-20T01:58:27.285Z,23.6
2018-11-20T01:59:18.059Z,23.6
2018-11-20T02:00:06.414Z,23.5
2018-11-20T02:00:57.177Z,23.5
2018-11-20T02:01:48.287Z,23.5
2018-11-20T02:02:37.227Z,23.5
2018-11-20T02:03:28.090Z,23.5
2018-11-20T02:04:18.430Z,23.5
2018-11-20T02:05:08.212Z,23.5
2018-11-20T02:05:58.509Z,23.5
2018-11-20T02:06:48.362Z,23.5
2018-11-20T02:07:38.645Z,23.5
2018-11-20T02:08:27.980Z,23.5
2018-11-20T02:09:18.210Z,23.5
2018-11-20T02:10:08.098Z,23.5
2018-11-20T02:10:58.310Z,23.5
2018-11-20T02:11:48.215Z,23.5
2018-11-20T02:12:39.019Z,23.5
2018-11-20T02:13:27.264Z,23.5
2018-11-20T02:14:19.021Z,23.6
2018-11-20T02:15:08.379Z,23.6
2018-11-20T02:15:59.507Z,23.6
2018-11-20T02:16:48.206Z,23.6
2018-11-20T02:17:38.749Z,23.6
2018-11-20T02:18:28.770Z,23.6
2018-11-20T02:19:18.939Z,23.6
2018-11-20T02:20:08.312Z,23.6
2018-11-20T02:20:59.819Z,23.6
2018-11-20T02:21:49.642Z,23.6
2018-11-20T02:22:39.654Z,23.6
2018-11-20T02:23:30.284Z,23.6
2018-11-20T02:24:18.567Z,23.6
2018-11-20T02:25:09.557Z,23.6
2018-11-20T02:26:00.199Z,23.6
2018-11-20T02:26:49.855Z,23.6
2018-11-20T02:27:39.851Z,23.6
2018-11-20T02:28:29.610Z,23.6
2018-11-20T02:29:20.001Z,23.7
2018-11-20T02:30:10.446Z,23.6
2018-11-20T02:30:58.938Z,23.6
2018-11-20T02:31:50.538Z,23.6
2018-11-20T02:32:39.981Z,23.6
2018-11-20T02:33:31.062Z,23.6
2018-11-20T02:34:19.501Z,23.6
2018-11-20T02:35:10.305Z,23.6
2018-11-20T02:35:59.428Z,23.6
2018-11-20T02:36:50.716Z,23.6
2018-11-20T02:37:40.835Z,23.6
2018-11-20T02:38:29.257Z,23.6
2018-11-20T02:39:20.638Z,23.6
2018-11-20T02:40:11.265Z,23.6
2018-11-20T02:41:00.613Z,23.6
2018-11-20T02:41:50.633Z,23.5
2018-11-20T02:42:41.129Z,23.5
2018-11-20T02:43:30.295Z,23.5
2018-11-20T02:44:20.275Z,23.4
2018-11-20T02:45:10.730Z,23.5
2018-11-20T02:46:01.045Z,23.5
2018-11-20T02:46:50.475Z,23.5
2018-11-20T02:47:41.040Z,23.5
2018-11-20T02:48:33.993Z,23.5
2018-11-20T02:49:19.161Z,23.5
2018-11-20T02:50:11.721Z,23.5
2018-11-20T02:51:00.272Z,23.5
2018-11-20T02:51:51.798Z,23.5
2018-11-20T02:52:41.519Z,23.5
2018-11-20T02:53:31.121Z,23.5
2018-11-20T02:54:20.645Z,23.5
2018-11-20T02:55:10.969Z,23.5
2018-11-20T02:56:01.817Z,23.5
2018-11-20T02:56:52.128Z,23.6
2018-11-20T02:57:41.702Z,23.6
2018-11-20T02:58:31.347Z,23.6
2018-11-20T02:59:21.769Z,23.6
2018-11-20T03:00:12.026Z,23.6
2018-11-20T03:01:01.628Z,23.6
2018-11-20T03:01:51.771Z,23.6
2018-11-20T03:02:41.662Z,23.6
2018-11-20T03:03:31.964Z,23.6
2018-11-20T03:04:22.069Z,23.6
2018-11-20T03:05:12.134Z,23.6
2018-11-20T03:06:01.891Z,23.6
2018-11-20T03:06:52.353Z,23.6
2018-11-20T03:07:42.334Z,23.6
2018-11-20T03:08:33.074Z,23.6
2018-11-20T03:09:22.701Z,23.6
2018-11-20T03:10:12.876Z,23.6
2018-11-20T03:11:02.986Z,23.6
2018-11-20T03:11:52.322Z,23.6
2018-11-20T03:12:41.743Z,23.6
2018-11-20T03:13:33.292Z,23.6
2018-11-20T03:14:21.978Z,23.6
2018-11-20T03:15:12.686Z,23.6
2018-11-20T03:16:02.926Z,23.6
2018-11-20T03:16:52.718Z,23.6
2018-11-20T03:17:43.368Z,23.6
2018-11-20T03:18:33.867Z,23.6
2018-11-20T03:19:22.806Z,23.6
2018-11-20T03:20:13.034Z,23.6
2018-11-20T03:21:03.556Z,23.6
2018-11-20T03:21:53.815Z,23.6
2018-11-20T03:22:43.618Z,23.6
2018-11-20T03:23:33.190Z,23.6
2018-11-20T03:24:23.440Z,23.6
2018-11-20T03:25:13.175Z,23.6
2018-11-20T03:26:04.158Z,23.6
2018-11-20T03:26:54.047Z,23.6
2018-11-20T03:27:43.968Z,23.6
2018-11-20T03:28:34.184Z,23.6
2018-11-20T03:29:24.116Z,23.6
2018-11-20T03:30:13.790Z,23.6
2018-11-20T03:31:03.720Z,23.6
2018-11-20T03:31:53.979Z,23.6
2018-11-20T03:32:44.154Z,23.6
2018-11-20T03:33:33.927Z,23.6
2018-11-20T03:34:25.090Z,23.6
2018-11-20T03:35:14.267Z,23.6
2018-11-20T03:36:04.327Z,23.6
2018-11-20T03:36:54.709Z,23.6
2018-11-20T03:37:44.684Z,23.6
2018-11-20T03:38:33.841Z,23.6
2018-11-20T03:39:23.927Z,23.5
2018-11-20T03:40:15.051Z,23.5
2018-11-20T03:41:05.007Z,23.5
2018-11-20T03:41:55.032Z,23.5
2018-11-20T03:42:44.562Z,23.5
2018-11-20T03:43:34.306Z,23.5
2018-11-20T03:44:24.892Z,23.5
2018-11-20T03:45:14.871Z,23.5
2018-11-20T03:46:04.642Z,23.5
2018-11-20T03:46:55.019Z,23.6
2018-11-20T03:47:45.217Z,23.6
2018-11-20T03:48:34.319Z,23.6
2018-11-20T03:49:25.316Z,23.6
2018-11-20T03:50:15.523Z,23.6
2018-11-20T03:51:05.414Z,23.6
2018-11-20T03:51:55.353Z,23.6
2018-11-20T03:52:44.803Z,23.6
2018-11-20T03:53:35.000Z,23.6
2018-11-20T03:54:24.571Z,23.6
2018-11-20T03:55:15.651Z,23.6
2018-11-20T03:56:04.601Z,23.6
2018-11-20T03:56:55.793Z,23.6
2018-11-20T03:57:44.890Z,23.6
2018-11-20T03:58:35.148Z,23.6
2018-11-20T03:59:25.041Z,23.6
2018-11-20T04:00:15.388Z,23.6
2018-11-20T04:01:04.893Z,23.6
2018-11-20T04:01:55.667Z,23.6
2018-11-20T04:02:46.425Z,23.6
2018-11-20T04:03:36.425Z,23.6
2018-11-20T04:04:26.433Z,23.5
2018-11-20T04:05:17.246Z,23.5
2018-11-20T04:06:05.994Z,23.5
2018-11-20T04:06:56.155Z,23.5
2018-11-20T04:07:46.977Z,23.5
2018-11-20T04:08:37.319Z,23.5
2018-11-20T04:09:26.930Z,23.5
2018-11-20T04:10:17.682Z,23.6
2018-11-20T04:11:06.120Z,23.6
2018-11-20T04:11:56.217Z,23.6
2018-11-20T04:12:47.839Z,23.6
2018-11-20T04:13:36.757Z,23.6
2018-11-20T04:14:27.525Z,23.6
2018-11-20T04:15:15.949Z,23.6
2018-11-20T04:16:07.184Z,23.6
2018-11-20T04:16:57.307Z,23.6
2018-11-20T04:17:48.235Z,23.6
2018-11-20T04:18:37.767Z,23.5
2018-11-20T04:19:27.686Z,23.5
2018-11-20T04:20:17.387Z,23.4
2018-11-20T04:21:07.744Z,23.4
2018-11-20T04:21:57.417Z,23.3
2018-11-20T04:22:47.774Z,23.3
2018-11-20T04:23:38.498Z,23.3
2018-11-20T04:24:27.924Z,23.2
2018-11-20T04:25:33.761Z,23.2
2018-11-20T04:26:08.247Z,23.1
2018-11-20T04:26:58.936Z,23.1
2018-11-20T04:27:48.449Z,23.1
2018-11-20T04:28:38.158Z,23.1
2018-11-20T04:29:27.439Z,23.1
2018-11-20T04:30:19.409Z,23.1
2018-11-20T04:31:09.206Z,23.1
2018-11-20T04:31:58.554Z,23.1
2018-11-20T04:32:48.506Z,23.1
2018-11-20T04:33:39.116Z,23.1
2018-11-20T04:34:28.710Z,23.1
2018-11-20T04:35:18.589Z,23.1
2018-11-20T04:36:09.500Z,23
2018-11-20T04:36:59.060Z,23
2018-11-20T09:08:43.150Z,22.9
2018-11-20T09:09:33.253Z,22.9
2018-11-20T09:10:22.823Z,22.9
2018-11-20T09:11:11.722Z,22.9
2018-11-20T09:12:02.912Z,22.9
2018-11-20T09:12:52.441Z,22.9
2018-11-20T09:13:44.180Z,22.9
2018-11-20T09:14:33.317Z,22.9
2018-11-20T09:15:22.828Z,22.9
2018-11-20T09:16:13.319Z,22.9
2018-11-20T09:17:03.809Z,22.8
2018-11-20T09:17:54.461Z,22.9
2018-11-20T09:18:42.574Z,22.8
2018-11-20T09:19:34.228Z,22.8
2018-11-20T09:20:25.224Z,22.8
2018-11-20T09:21:14.836Z,22.8
2018-11-20T09:22:03.826Z,22.8
2018-11-20T09:22:54.001Z,22.8
2018-11-20T09:23:44.561Z,22.8
2018-11-20T09:24:33.588Z,22.8
2018-11-20T09:25:22.874Z,22.8
2018-11-20T09:26:14.154Z,22.8
2018-11-20T09:27:04.246Z,22.8
2018-11-20T09:27:54.063Z,22.8
2018-11-20T09:28:44.113Z,22.8
2018-11-20T09:29:34.421Z,22.8
2018-11-20T09:30:23.371Z,22.8
2018-11-20T09:31:13.216Z,22.8
2018-11-20T09:32:03.276Z,22.8
2018-11-20T09:32:54.868Z,22.8
2018-11-20T09:33:44.236Z,22.8
2018-11-20T09:34:35.639Z,22.8
2018-11-20T09:35:26.060Z,22.8
2018-11-20T09:36:15.118Z,22.8
2018-11-20T09:37:04.678Z,22.8
2018-11-20T09:37:54.558Z,22.8
2018-11-20T09:38:43.575Z,22.8
2018-11-20T09:39:35.387Z,22.8
2018-11-20T09:40:23.965Z,22.8
2018-11-20T09:41:14.873Z,22.9
2018-11-20T09:42:05.017Z,22.9
2018-11-20T09:42:55.183Z,22.9
2018-11-20T09:43:45.033Z,22.9
2018-11-20T09:44:35.470Z,22.9
2018-11-20T09:45:24.857Z,22.9
2018-11-20T09:46:15.022Z,22.9
2018-11-20T09:47:05.137Z,22.9
2018-11-20T09:47:55.674Z,22.9
2018-11-20T09:48:45.754Z,22.9
2018-11-20T09:49:36.359Z,22.8
2018-11-20T09:50:25.584Z,22.8
2018-11-20T09:51:15.286Z,22.8
2018-11-20T09:52:05.622Z,22.8
2018-11-20T09:52:56.489Z,22.8
2018-11-20T09:53:45.171Z,22.8
2018-11-20T09:54:35.992Z,22.8
2018-11-20T09:55:25.772Z,22.8
2018-11-20T09:56:15.586Z,22.8
2018-11-20T09:57:06.304Z,22.8
2018-11-20T09:57:55.609Z,22.8
2018-11-20T09:58:46.184Z,22.8
2018-11-20T09:59:37.264Z,22.8
2018-11-20T10:00:27.085Z,22.8
2018-11-20T10:01:16.564Z,22.8
2018-11-20T10:02:06.607Z,22.8
2018-11-20T10:02:56.439Z,22.8
2018-11-20T10:03:46.979Z,22.9
2018-11-20T10:04:35.850Z,22.8
2018-11-20T10:05:27.440Z,22.9
2018-11-20T10:06:16.511Z,22.8
2018-11-20T10:07:08.446Z,22.9
2018-11-20T10:07:56.521Z,22.9
2018-11-20T10:08:47.936Z,22.9
2018-11-20T10:09:37.713Z,22.9
2018-11-20T10:10:25.578Z,22.9
2018-11-20T10:11:16.941Z,22.9
2018-11-20T10:12:06.803Z,22.9
2018-11-20T10:12:57.142Z,22.9
2018-11-20T10:13:47.754Z,22.9
2018-11-20T10:14:37.306Z,22.9
2018-11-20T10:15:27.135Z,22.9
2018-11-20T10:16:16.615Z,22.9
2018-11-20T10:17:07.033Z,22.9
2018-11-20T10:17:57.705Z,22.8
2018-11-20T10:18:47.222Z,22.8
2018-11-20T10:19:37.605Z,22.8
2018-11-20T10:20:27.990Z,22.8
2018-11-20T10:21:17.671Z,22.8
2018-11-20T10:22:09.586Z,22.8
2018-11-20T10:22:57.460Z,22.8
2018-11-20T10:23:48.470Z,22.8
2018-11-20T10:24:38.108Z,22.8
2018-11-20T10:25:29.895Z,22.8
2018-11-20T10:26:18.385Z,22.8
2018-11-20T10:27:08.427Z,22.8
2018-11-20T10:27:57.480Z,22.8
2018-11-20T10:28:48.499Z,22.8
2018-11-20T10:29:38.517Z,22.8
2018-11-20T10:30:28.574Z,22.8
2018-11-20T10:31:19.519Z,22.8
2018-11-20T10:32:08.484Z,22.8
2018-11-20T10:32:59.347Z,22.8
2018-11-20T10:33:48.766Z,22.9
2018-11-20T10:34:39.389Z,22.9
2018-11-20T10:35:28.480Z,22.9
2018-11-20T10:36:19.794Z,22.9
2018-11-20T10:37:08.166Z,22.9
2018-11-20T10:37:58.172Z,22.9
2018-11-20T10:38:49.151Z,22.9
2018-11-20T10:39:39.532Z,22.9
2018-11-20T10:40:28.635Z,22.9
2018-11-20T10:41:20.532Z,22.9
2018-11-20T10:42:08.571Z,22.9
2018-11-20T10:42:58.424Z,22.9
2018-11-20T10:43:49.292Z,22.8
2018-11-20T10:44:39.532Z,22.8
2018-11-20T10:45:29.721Z,22.8
2018-11-20T10:46:22.248Z,22.8
2018-11-20T10:47:08.981Z,22.8
2018-11-20T10:47:59.193Z,22.8
2018-11-20T10:48:49.034Z,22.8
2018-11-20T10:49:39.935Z,22.8
2018-11-20T10:50:30.376Z,22.8
2018-11-20T10:51:20.320Z,22.8
2018-11-20T10:52:07.819Z,22.8
2018-11-20T10:52:59.814Z,22.8
2018-11-20T10:53:49.625Z,22.8
2018-11-20T10:54:39.278Z,22.8
2018-11-20T10:55:29.618Z,22.8
2018-11-20T10:56:19.396Z,22.8
2018-11-20T10:57:10.405Z,22.8
2018-11-20T10:57:59.758Z,22.8
2018-11-20T10:58:50.790Z,22.8
2018-11-20T10:59:41.811Z,22.8
2018-11-20T11:00:29.898Z,22.8
2018-11-20T11:01:21.407Z,22.9
2018-11-20T11:02:09.439Z,22.9
2018-11-20T11:03:00.000Z,22.9
2018-11-20T11:03:50.185Z,22.9
2018-11-20T11:04:40.560Z,22.9
2018-11-20T11:05:30.692Z,22.9
2018-11-20T11:06:22.628Z,22.9
2018-11-20T11:07:16.352Z,22.9
2018-11-20T11:08:02.954Z,22.9
2018-11-20T11:08:51.032Z,22.9
2018-11-20T11:09:40.127Z,22.9
2018-11-20T11:10:30.807Z,22.8
2018-11-20T11:11:22.525Z,22.9
2018-11-20T11:12:14.099Z,22.8
2018-11-20T11:13:02.192Z,22.8
2018-11-20T11:13:52.440Z,22.8
2018-11-20T11:14:42.572Z,22.8
2018-11-20T11:15:31.447Z,22.8
2018-11-20T11:16:21.441Z,22.8
2018-11-20T11:17:12.850Z,22.8
2018-11-20T11:18:01.832Z,22.8
2018-11-20T11:18:50.755Z,22.8
2018-11-20T11:19:42.225Z,22.8
2018-11-20T11:20:33.622Z,22.8
2018-11-20T11:21:21.269Z,22.8
2018-11-20T11:22:12.508Z,22.8
2018-11-20T11:23:04.616Z,22.8
2018-11-20T11:23:52.616Z,22.8
2018-11-20T11:24:42.134Z,22.8
2018-11-20T11:25:32.209Z,22.8
2018-11-20T11:26:22.044Z,22.8
2018-11-20T11:27:12.246Z,22.8
2018-11-20T11:28:01.799Z,22.8
2018-11-20T11:28:55.520Z,22.9
2018-11-20T11:29:42.509Z,22.9
2018-11-20T11:30:32.246Z,22.9
2018-11-20T11:31:22.281Z,22.9
2018-11-20T11:32:12.491Z,22.9
2018-11-20T11:33:01.657Z,22.9
2018-11-20T11:33:51.758Z,22.9
2018-11-20T11:34:42.349Z,22.9
2018-11-20T11:35:32.157Z,22.9
2018-11-20T11:36:21.765Z,22.9
2018-11-20T11:37:12.203Z,22.9
2018-11-20T11:38:03.446Z,22.9
2018-11-20T11:38:52.820Z,22.8
2018-11-20T11:39:43.468Z,22.9
2018-11-20T11:40:33.298Z,22.9
2018-11-20T11:41:22.412Z,22.8
2018-11-20T11:42:13.259Z,22.8
2018-11-20T11:43:03.003Z,22.8
2018-11-20T11:43:53.717Z,22.8
2018-11-20T11:44:43.270Z,22.8
2018-11-20T11:45:32.806Z,22.8
2018-11-20T11:46:23.097Z,22.8
2018-11-20T11:47:13.188Z,22.8
2018-11-20T11:48:04.282Z,22.8
2018-11-20T11:48:53.668Z,22.8
2018-11-20T11:49:44.163Z,22.8
2018-11-20T11:50:32.665Z,22.8
2018-11-20T11:51:27.902Z,22.8
2018-11-20T11:52:14.163Z,22.8
2018-11-20T11:53:04.836Z,22.8
2018-11-20T11:53:53.503Z,22.8
2018-11-20T11:54:43.692Z,22.8
2018-11-20T11:55:32.704Z,22.9
2018-11-20T11:56:24.050Z,22.9
2018-11-20T11:57:14.019Z,22.9
2018-11-20T11:58:03.809Z,22.9
2018-11-20T11:58:53.711Z,22.9
2018-11-20T11:59:43.491Z,22.9
2018-11-20T12:00:34.469Z,22.9
2018-11-20T12:01:24.482Z,22.9
2018-11-20T12:03:53.189Z,22.9
2018-11-20T12:04:44.409Z,22.9
2018-11-20T12:05:33.954Z,22.9
2018-11-20T12:06:23.871Z,22.9
2018-11-20T12:07:14.917Z,22.9
2018-11-20T12:08:05.043Z,22.9
2018-11-20T12:08:55.180Z,22.8
2018-11-20T12:09:44.518Z,22.8
2018-11-20T12:10:39.791Z,22.8
2018-11-20T12:11:25.323Z,22.8
2018-11-20T12:12:14.434Z,22.8
2018-11-20T12:13:06.051Z,22.8
2018-11-20T12:13:54.333Z,22.8
2018-11-20T12:14:45.881Z,22.8
2018-11-20T12:15:35.018Z,22.8
2018-11-20T12:16:25.618Z,22.8
2018-11-20T12:17:15.376Z,22.8
2018-11-20T12:18:05.533Z,22.8
2018-11-20T12:18:57.729Z,22.8
2018-11-20T12:19:45.896Z,22.8
2018-11-20T12:20:34.838Z,22.8
2018-11-20T12:21:24.990Z,22.8
2018-11-20T12:22:15.576Z,22.8
2018-11-20T12:23:05.873Z,22.8
2018-11-20T12:23:56.102Z,22.8
2018-11-20T12:24:48.393Z,22.9
2018-11-20T12:25:35.640Z,22.9
2018-11-20T12:26:26.152Z,22.9
2018-11-20T12:27:15.610Z,22.9
2018-11-20T12:28:05.384Z,22.9
2018-11-20T12:29:01.680Z,22.9
2018-11-20T12:29:46.984Z,22.9
2018-11-20T12:30:35.902Z,22.9
2018-11-20T12:31:28.683Z,22.9
2018-11-20T12:32:16.152Z,22.9
2018-11-20T12:33:06.857Z,22.9
2018-11-20T12:34:00.578Z,22.9
2018-11-20T12:34:47.217Z,22.8
2018-11-20T12:35:44.914Z,22.9
2018-11-20T12:36:26.628Z,22.8
2018-11-20T12:37:17.006Z,22.8
2018-11-20T12:38:06.762Z,22.8
2018-11-20T12:38:56.400Z,22.8
2018-11-20T12:39:47.690Z,22.8
2018-11-20T12:40:37.737Z,22.8
2018-11-20T12:41:29.807Z,22.8
2018-11-20T12:42:17.737Z,22.8
2018-11-20T12:43:07.099Z,22.8
2018-11-20T12:44:01.496Z,22.8
2018-11-20T12:44:46.888Z,22.8
2018-11-20T12:45:39.951Z,22.8
2018-11-20T12:46:26.211Z,22.8
2018-11-20T12:47:19.769Z,22.8
2018-11-20T12:48:10.248Z,22.8
2018-11-20T12:49:01.602Z,22.8
2018-11-20T12:49:47.338Z,22.8
2018-11-20T12:50:38.261Z,22.8
2018-11-20T12:51:31.236Z,22.8
2018-11-20T12:52:18.491Z,22.9
2018-11-20T12:53:10.293Z,22.9
2018-11-20T12:54:00.636Z,22.9
2018-11-20T12:54:48.041Z,22.9
2018-11-20T12:55:41.394Z,22.9
2018-11-20T12:56:27.878Z,22.9
2018-11-20T12:57:19.770Z,22.9
2018-11-20T12:58:08.291Z,22.9
2018-11-20T12:59:00.440Z,22.9
2018-11-20T12:59:48.898Z,22.9
2018-11-20T13:00:41.303Z,22.9
2018-11-20T13:01:28.315Z,22.9
2018-11-20T13:02:19.280Z,22.9
2018-11-20T13:03:08.255Z,22.9
2018-11-20T13:03:58.210Z,22.8
2018-11-20T13:04:50.470Z,22.8
2018-11-20T13:05:40.444Z,22.8
2018-11-20T13:06:29.187Z,22.8
2018-11-20T13:07:20.242Z,22.8
2018-11-20T13:08:09.412Z,22.8
2018-11-20T13:09:01.386Z,22.8
2018-11-20T13:09:50.205Z,22.8
2018-11-20T13:10:38.505Z,22.8
2018-11-20T13:11:28.929Z,22.8
2018-11-20T13:12:18.996Z,22.8
2018-11-20T13:13:09.572Z,22.8
2018-11-20T13:14:03.393Z,22.8
2018-11-20T13:14:51.670Z,22.8
2018-11-20T13:15:40.257Z,22.8
2018-11-20T13:16:29.679Z,22.8
2018-11-20T13:17:21.804Z,22.8
2018-11-20T13:18:11.460Z,22.8
2018-11-20T13:19:01.100Z,22.8
2018-11-20T13:19:49.705Z,22.8
2018-11-20T13:20:40.117Z,22.8
2018-11-20T13:21:29.574Z,22.8
2018-11-20T13:22:21.009Z,22.9
2018-11-20T13:23:10.536Z,22.9
2018-11-20T13:24:00.279Z,22.9
2018-11-20T13:24:49.922Z,22.9
2018-11-20T13:25:40.728Z,22.9
2018-11-20T13:26:31.367Z,22.9
2018-11-20T13:27:19.934Z,22.9
2018-11-20T13:28:10.626Z,22.9
2018-11-20T13:28:59.916Z,22.9
2018-11-20T13:29:50.115Z,22.8
2018-11-20T13:30:41.382Z,22.8
2018-11-20T13:31:31.212Z,22.9
2018-11-20T13:32:21.037Z,22.8
2018-11-20T13:33:10.576Z,22.8
2018-11-20T13:34:02.446Z,22.8
2018-11-20T13:34:54.741Z,22.8
2018-11-20T13:35:40.508Z,22.8
2018-11-20T13:36:30.980Z,22.8
2018-11-20T13:37:22.183Z,22.8
2018-11-20T13:38:11.648Z,22.8
2018-11-20T13:39:03.945Z,22.8
2018-11-20T13:39:51.959Z,22.6
2018-11-20T13:40:40.278Z,22.6
2018-11-20T13:41:31.127Z,22.6
2018-11-20T13:42:21.127Z,22.6
2018-11-20T13:43:13.108Z,22.6
2018-11-20T13:44:02.068Z,22.6
2018-11-20T13:44:53.372Z,22.6
2018-11-20T13:45:41.018Z,22.7
2018-11-20T13:46:33.558Z,22.7
2018-11-20T13:47:20.660Z,22.7
2018-11-20T13:48:12.242Z,22.8
2018-11-20T13:49:01.460Z,22.8
2018-11-20T13:49:52.910Z,22.8
2018-11-20T13:50:42.304Z,22.8
2018-11-20T14:07:29.663Z,22.8
2018-11-20T14:08:19.741Z,22.8
2018-11-20T14:09:11.136Z,22.8
2018-11-20T14:10:00.843Z,22.8
2018-11-20T14:10:50.256Z,22.8
2018-11-20T14:11:55.283Z,22.8
2018-11-20T14:12:30.388Z,22.8
2018-11-20T14:13:20.983Z,22.8
2018-11-20T14:14:10.521Z,22.8
2018-11-20T14:15:01.051Z,22.8
2018-11-20T14:16:05.051Z,22.8
2018-11-20T14:16:40.668Z,22.8
2018-11-20T14:17:31.298Z,22.8
2018-11-20T14:18:21.091Z,22.8
2018-11-20T14:19:25.258Z,22.8
2018-11-20T14:20:01.483Z,22.8
2018-11-20T14:20:50.983Z,22.9
2018-11-20T14:21:41.300Z,22.9
2018-11-20T14:22:30.809Z,22.9
2018-11-20T14:23:36.668Z,22.9
2018-11-20T14:24:11.050Z,22.9
2018-11-20T14:25:00.855Z,22.9
2018-11-20T14:25:51.277Z,22.8
2018-11-20T14:26:56.063Z,22.9
2018-11-20T14:27:31.487Z,22.9
2018-11-20T14:28:36.194Z,22.8
2018-11-20T14:29:11.847Z,22.8
2018-11-20T14:30:16.712Z,22.8
2018-11-20T14:30:51.412Z,22.8
2018-11-20T14:31:42.288Z,22.8
2018-11-20T14:32:32.220Z,22.8
2018-11-20T14:33:21.492Z,22.8
2018-11-20T14:34:11.822Z,22.8
2018-11-20T14:35:02.732Z,22.8
2018-11-20T14:35:52.037Z,22.8
2018-11-20T14:36:58.002Z,22.8
2018-11-20T14:37:33.444Z,22.8
2018-11-20T14:38:21.164Z,22.8
2018-11-20T14:39:12.269Z,22.8
2018-11-20T14:40:02.522Z,22.8
2018-11-20T14:41:24.566Z,22.8
2018-11-20T14:41:42.149Z,22.8
2018-11-20T14:42:31.602Z,22.8
2018-11-20T14:43:22.518Z,22.8
2018-11-20T14:44:12.713Z,22.8
2018-11-20T14:45:02.401Z,22.8
2018-11-20T14:45:52.231Z,22.8
2018-11-20T14:46:42.676Z,22.8
2018-11-20T14:47:31.903Z,22.8
2018-11-20T14:48:37.194Z,22.8
2018-11-20T14:49:12.908Z,22.8
2018-11-20T14:50:02.325Z,22.9
2018-11-20T14:51:07.226Z,22.9
2018-11-20T14:51:42.041Z,22.9
2018-11-20T14:52:33.865Z,22.9
2018-11-20T14:53:23.207Z,22.8
2018-11-20T14:54:13.865Z,22.8
2018-11-20T14:55:03.106Z,22.9
2018-11-20T14:55:53.283Z,22.8
2018-11-20T14:56:43.701Z,22.8
2018-11-20T14:57:48.168Z,22.8
2018-11-20T14:58:23.071Z,22.8
2018-11-20T14:59:13.284Z,22.8
2018-11-20T15:00:03.785Z,22.8
2018-11-20T15:00:53.445Z,22.8
2018-11-20T15:01:43.542Z,22.8
2018-11-20T15:02:48.267Z,22.8
2018-11-20T15:03:24.162Z,22.8
2018-11-20T15:04:13.936Z,22.8
2018-11-20T15:05:04.412Z,22.8
2018-11-20T15:05:53.655Z,22.8
2018-11-20T15:06:44.356Z,22.8
2018-11-20T15:07:33.705Z,22.8
2018-11-20T15:08:40.293Z,22.8
2018-11-20T15:09:13.670Z,22.8
2018-11-20T15:10:04.243Z,22.8
2018-11-20T15:10:54.612Z,22.8
2018-11-20T15:11:44.787Z,22.8
2018-11-20T15:12:34.146Z,22.8
2018-11-20T15:13:24.634Z,22.8
2018-11-20T15:14:14.830Z,22.8
2018-11-20T15:15:04.600Z,22.8
2018-11-20T15:15:53.929Z,22.8
2018-11-20T15:16:59.191Z,22.8
2018-11-20T15:17:34.686Z,22.8
2018-11-20T15:18:24.411Z,22.9
2018-11-20T15:19:13.852Z,22.9
2018-11-20T15:20:05.030Z,22.9
2018-11-20T15:20:53.986Z,22.9
2018-11-20T15:21:44.361Z,22.9
2018-11-20T15:22:34.879Z,22.8
2018-11-20T15:23:25.211Z,22.8
2018-11-20T15:24:14.286Z,22.8
2018-11-20T15:25:06.497Z,22.8
2018-11-20T15:25:55.295Z,22.8
2018-11-20T15:26:44.551Z,22.8
2018-11-20T15:27:35.851Z,22.8
2018-11-20T15:28:25.591Z,22.8
2018-11-20T15:29:15.455Z,22.8
2018-11-20T15:30:05.448Z,22.8
2018-11-20T15:31:10.874Z,22.8
2018-11-20T15:31:45.681Z,22.8
2018-11-20T15:32:36.823Z,22.8
2018-11-20T15:33:26.678Z,22.8
2018-11-20T15:34:15.976Z,22.8
2018-11-20T15:35:06.825Z,22.8
2018-11-20T15:36:10.450Z,22.8
2018-11-20T15:36:46.943Z,22.7
2018-11-20T15:37:36.756Z,22.8
2018-11-20T15:38:39.803Z,22.8
2018-11-20T15:39:16.888Z,22.8
2018-11-20T15:40:07.235Z,22.7
2018-11-20T15:40:56.512Z,22.7
2018-11-20T15:41:48.061Z,22.8
2018-11-20T15:42:36.752Z,22.7
2018-11-20T15:43:26.312Z,22.8
2018-11-20T15:44:16.965Z,22.8
2018-11-20T15:45:07.295Z,22.8
2018-11-20T15:45:57.086Z,22.8
2018-11-20T15:47:02.785Z,22.8
2018-11-20T15:47:36.391Z,22.8
2018-11-20T15:48:27.697Z,22.8
2018-11-20T15:49:17.659Z,22.8
2018-11-20T15:50:06.887Z,22.8
2018-11-20T15:50:56.602Z,22.8
2018-11-20T15:51:46.217Z,22.8
2018-11-20T15:52:37.894Z,22.8
2018-11-20T15:53:27.292Z,22.8
2018-11-20T15:54:17.192Z,22.8
2018-11-20T15:55:06.784Z,22.8
2018-11-20T15:55:56.651Z,22.8
2018-11-20T15:56:47.814Z,22.8
2018-11-20T15:57:37.106Z,22.8
2018-11-20T15:58:28.546Z,22.8
2018-11-20T15:59:17.017Z,22.8
2018-11-20T16:00:21.961Z,22.8
2018-11-20T16:00:58.027Z,22.8
2018-11-20T16:01:47.979Z,22.8
2018-11-20T16:02:38.529Z,22.8
2018-11-20T16:03:29.308Z,22.8
2018-11-20T16:04:18.452Z,22.8
2018-11-20T16:05:07.603Z,22.8
2018-11-20T16:06:47.172Z,22.8
2018-11-20T16:07:38.444Z,22.8
2018-11-20T16:08:28.163Z,22.8
2018-11-20T16:09:19.113Z,22.8
2018-11-20T16:10:08.023Z,22.8
2018-11-20T16:10:57.459Z,22.7
2018-11-20T16:11:48.663Z,22.7
2018-11-20T16:12:55.393Z,22.7
2018-11-20T16:13:27.401Z,22.7
2018-11-20T16:14:18.855Z,22.7
2018-11-20T16:15:08.051Z,22.7
2018-11-20T16:15:59.422Z,22.7
2018-11-20T16:16:49.208Z,22.7
2018-11-20T16:17:38.583Z,22.7
2018-11-20T16:18:28.447Z,22.8
2018-11-20T16:19:18.713Z,22.8
2018-11-20T16:20:22.965Z,22.8